Stations météo

réclame
Mon MeteoGroup
Venezia Lido, Italie (16101): Température de l'air & dewpoint: 18.10.2018 01:00:00 - 24.10.2018 01:00:00 (CEST)Venezia Lido, Italie (16101): Vitesse du vent: 18.10.2018 01:00:00 - 24.10.2018 01:00:00 (CEST)Venezia Lido, Italie (16101): Direction du vent: 18.10.2018 01:00:00 - 24.10.2018 01:00:00 (CEST)Venezia Lido, Italie (16101): reduced air pressure: 18.10.2018 01:00:00 - 24.10.2018 01:00:00 (CEST)Venezia Lido, Italie (16101): Quantités de précipitations: 18.10.2018 01:00:00 - 24.10.2018 01:00:00 (CEST)
Date & Time tt [°C] td [°C] ff [km/h] ff [knt] dd ppp [hPa] rr [mm]
24.10.2018 01:00:00 - - - - - - -
24.10.2018 00:00:00 13,7 8,1 13 7 E 1016,3 -
23.10.2018 23:00:00 14,5 8,2 13 7 WSW 1016,8 -
23.10.2018 22:00:00 14,7 8,6 8 4 W 1017,4 -
23.10.2018 21:00:00 14,8 8,2 5 3 SW 1018,3 -
23.10.2018 20:00:00 15,3 8,5 8 4 WSW 1018,5 0,0
23.10.2018 19:00:00 16,1 9,5 8 4 WSW 1018,8 -
23.10.2018 18:00:00 16,9 8,8 8 4 WSW 1019,1 -
23.10.2018 17:00:00 18,3 7,6 9 5 WSW 1019,8 -
23.10.2018 16:00:00 18,7 7,7 8 4 W 1020,7 -
23.10.2018 15:00:00 18,2 9,2 5 3 SW 1021,3 -
23.10.2018 14:00:00 18,2 7,8 5 3 W 1022,3 0,0
23.10.2018 13:00:00 16,4 8,8 4 2 N 1023,3 -
23.10.2018 12:00:00 15,0 9,1 4 2 NE 1023,7 -
23.10.2018 11:00:00 13,2 8,6 5 3 NNE 1024,2 -
23.10.2018 10:00:00 11,6 7,7 5 3 N 1024,4 -
23.10.2018 09:00:00 9,9 8,1 4 2 NNE 1024,2 -
23.10.2018 08:00:00 8,8 6,7 2 1 N 1024,1 0,0
23.10.2018 07:00:00 8,8 6,6 5 3 N 1024,2 -
23.10.2018 06:00:00 9,9 6,8 8 4 NNE 1024,3 -
23.10.2018 05:00:00 10,2 7,6 5 3 N 1023,9 -
23.10.2018 04:00:00 10,4 7,4 5 3 N 1024,3 -
23.10.2018 03:00:00 10,8 7,4 8 4 NE 1024,2 -
23.10.2018 02:00:00 10,5 7,2 8 4 NNE 1024,4 0,0
23.10.2018 01:00:00 11,3 7,2 8 4 NNE 1024,6 -
23.10.2018 00:00:00 12,0 8,6 5 3 NE 1024,5 -
22.10.2018 23:00:00 12,5 8,7 9 5 ENE 1024,0 -
22.10.2018 22:00:00 10,9 7,2 4 2 ENE 1023,5 -
22.10.2018 21:00:00 12,2 8,4 5 3 E 1022,9 -
22.10.2018 20:00:00 13,2 9,2 8 4 ENE 1022,4 0,0
22.10.2018 19:00:00 12,3 7,3 9 5 ESE 1021,5 -
22.10.2018 18:00:00 15,0 8,9 21 11 ESE 1020,8 -
22.10.2018 17:00:00 16,0 8,2 21 11 ESE 1020,7 -
22.10.2018 16:00:00 16,9 7,5 18 10 E 1020,6 -
22.10.2018 15:00:00 17,0 7,3 18 10 E 1020,7 -
22.10.2018 14:00:00 16,4 5,9 22 12 ESE 1021,2 0,0
22.10.2018 13:00:00 16,0 5,8 15 8 E 1021,8 -
22.10.2018 12:00:00 14,7 5,9 15 8 E 1022,7 -
22.10.2018 11:00:00 12,2 6,4 8 4 ENE 1022,9 -
22.10.2018 10:00:00 9,8 7,0 4 2 NE 1023,2 -
22.10.2018 09:00:00 8,5 6,9 4 2 NNE 1022,8 -
22.10.2018 08:00:00 6,9 5,4 4 2 NE 1022,3 0,0
22.10.2018 07:00:00 6,1 4,6 4 2 ENE 1022,3 -
22.10.2018 06:00:00 5,9 4,4 8 4 NE 1022,5 -
22.10.2018 05:00:00 6,7 5,2 8 4 NE 1022,4 -
22.10.2018 04:00:00 7,4 5,4 13 7 NE 1022,6 -
22.10.2018 03:00:00 9,2 5,7 15 8 ENE 1023,1 -
22.10.2018 02:00:00 9,0 4,2 22 12 E 1023,6 0,0
22.10.2018 01:00:00 8,9 4,8 15 8 E 1023,7 -
22.10.2018 00:00:00 8,9 6,8 8 4 NE 1024,0 -
21.10.2018 23:00:00 9,5 6,5 8 4 ENE 1024,2 -
21.10.2018 22:00:00 9,8 6,1 16 9 E 1024,1 -
21.10.2018 21:00:00 10,1 7,8 5 3 N 1023,8 -
21.10.2018 20:00:00 12,5 5,3 21 11 E 1023,5 -
21.10.2018 19:00:00 13,1 4,9 24 13 ESE 1022,4 -
21.10.2018 18:00:00 11,0 6,3 26 14 SE 1021,5 -
21.10.2018 17:00:00 11,2 7,5 39 21 ESE 1021,6 -
21.10.2018 16:00:00 11,5 8,1 46 25 ESE 1021,3 -
21.10.2018 15:00:00 13,2 9,4 24 13 SE 1020,5 -
21.10.2018 14:00:00 17,5 12,4 11 6 S 1019,9 -
21.10.2018 13:00:00 18,9 14,9 11 6 SSW 1020,1 -
21.10.2018 12:00:00 18,0 15,2 8 4 ENE 1020,0 -
21.10.2018 11:00:00 15,4 12,7 5 3 ENE 1020,7 -
21.10.2018 10:00:00 14,4 12,1 15 8 E 1020,9 -
21.10.2018 09:00:00 13,8 11,5 15 8 ENE 1020,9 -
21.10.2018 08:00:00 13,2 11,6 8 4 ENE 1020,6 0,0
21.10.2018 07:00:00 12,9 11,3 11 6 E 1020,4 -
21.10.2018 06:00:00 11,8 10,2 5 3 ENE 1020,8 -
21.10.2018 05:00:00 11,6 10,2 4 2 NE 1021,1 -
21.10.2018 04:00:00 11,8 10,2 8 4 NNE 1021,5 -
21.10.2018 03:00:00 11,9 10,5 4 2 N 1022,1 -
21.10.2018 02:00:00 11,7 10,1 2 1 NNW 1022,5 0,0
21.10.2018 01:00:00 12,1 10,5 2 1 NNE 1023,0 -
21.10.2018 00:00:00 11,7 10,1 4 2 NNE 1023,2 -
20.10.2018 23:00:00 12,5 10,9 2 1 NNW 1023,4 -
20.10.2018 22:00:00 13,0 11,0 0 0 N 1023,3 -
20.10.2018 21:00:00 13,0 10,3 2 1 E 1022,9 -
20.10.2018 20:00:00 13,7 10,1 0 0 N 1022,7 0,0
20.10.2018 19:00:00 14,8 8,7 2 1 N 1022,3 -
20.10.2018 18:00:00 18,4 10,4 2 1 NE 1022,2 -
20.10.2018 17:00:00 21,1 11,4 4 2 SSE 1022,4 -
20.10.2018 16:00:00 21,8 12,0 4 2 SSE 1022,7 -
20.10.2018 15:00:00 20,6 12,0 5 3 SE 1023,3 -
20.10.2018 14:00:00 20,1 11,5 8 4 SE 1023,8 0,0
20.10.2018 13:00:00 19,8 12,0 11 6 ENE 1024,1 -
20.10.2018 12:00:00 18,5 13,1 11 6 E 1024,3 -
20.10.2018 11:00:00 17,1 13,7 11 6 E 1023,9 -
20.10.2018 10:00:00 15,3 12,9 13 7 E 1023,5 -
20.10.2018 09:00:00 14,1 12,3 9 5 N 1023,1 -
20.10.2018 08:00:00 13,6 12,0 9 5 ENE 1022,2 0,0
20.10.2018 07:00:00 13,4 11,8 9 5 ENE 1021,7 -
20.10.2018 06:00:00 13,2 11,6 9 5 ENE 1021,5 -
20.10.2018 05:00:00 13,3 11,7 8 4 NE 1021,3 -
20.10.2018 04:00:00 13,2 11,2 5 3 NE 1021,2 -
20.10.2018 03:00:00 13,8 11,8 4 2 NNE 1021,2 -
20.10.2018 02:00:00 14,7 13,0 4 2 NNE 1021,0 0,0
20.10.2018 01:00:00 14,2 12,4 5 3 NE 1020,8 -
20.10.2018 00:00:00 14,7 13,0 5 3 ENE 1020,7 -
19.10.2018 23:00:00 13,4 11,8 4 2 NE 1020,6 -
19.10.2018 22:00:00 13,1 11,5 4 2 NE 1020,1 -
19.10.2018 21:00:00 13,5 11,4 4 2 NE 1019,7 -
19.10.2018 20:00:00 14,8 12,1 2 1 NNE 1019,4 -
19.10.2018 19:00:00 16,5 12,8 4 2 N 1018,8 -
19.10.2018 18:00:00 19,1 14,9 4 2 ESE 1018,1 -
19.10.2018 17:00:00 21,1 14,4 5 3 ESE 1018,0 -
19.10.2018 16:00:00 21,7 14,3 9 5 ESE 1017,8 -
19.10.2018 15:00:00 21,8 13,6 11 6 SE 1018,1 -
19.10.2018 14:00:00 21,9 12,9 15 8 ESE 1018,4 0,0
19.10.2018 13:00:00 21,3 12,7 13 7 E 1018,6 -
19.10.2018 12:00:00 20,2 13,3 15 8 E 1018,7 -
19.10.2018 11:00:00 18,8 13,1 11 6 ENE 1018,5 -
19.10.2018 10:00:00 16,4 13,6 9 5 ENE 1018,3 -
19.10.2018 09:00:00 14,2 12,6 5 3 NE 1018,0 -
19.10.2018 08:00:00 13,2 11,6 5 3 NNE 1017,7 0,0
19.10.2018 07:00:00 12,7 11,1 4 2 NNE 1017,1 -
19.10.2018 06:00:00 13,3 11,7 4 2 NE 1016,9 -
19.10.2018 05:00:00 13,6 12,0 5 3 NNE 1017,0 -
19.10.2018 04:00:00 13,2 11,6 5 3 NNE 1017,0 -
19.10.2018 03:00:00 13,5 11,9 2 1 NNE 1017,3 -
19.10.2018 02:00:00 14,4 12,9 5 3 NNE 1017,5 0,0
19.10.2018 01:00:00 15,4 13,9 4 2 NE 1017,3 -
19.10.2018 00:00:00 15,0 13,5 8 4 ENE 1017,2 -
18.10.2018 23:00:00 13,9 12,3 2 1 NNE 1016,9 -
18.10.2018 22:00:00 13,8 12,2 2 1 ENE 1016,5 -
18.10.2018 21:00:00 14,0 11,7 0 0 N 1016,2 -
18.10.2018 20:00:00 15,1 12,4 0 0 N 1016,0 0,0
18.10.2018 19:00:00 16,2 12,5 2 1 E 1015,4 -
18.10.2018 18:00:00 18,8 14,6 2 1 WSW 1015,4 -
18.10.2018 17:00:00 19,8 15,6 4 2 SSW 1015,2 -
18.10.2018 16:00:00 20,7 15,2 5 3 S 1015,4 -
18.10.2018 15:00:00 22,3 14,6 8 4 SSE 1015,5 -
18.10.2018 14:00:00 22,2 14,7 4 2 NNE 1016,0 0,0
18.10.2018 13:00:00 21,3 15,3 5 3 NE 1016,5 -
18.10.2018 12:00:00 18,9 14,5 5 3 NNE 1016,9 -
18.10.2018 11:00:00 18,0 14,8 5 3 NNE 1017,0 -
18.10.2018 10:00:00 16,5 14,8 5 3 NNW 1017,0 -
18.10.2018 09:00:00 14,9 13,2 5 3 N 1016,8 -
18.10.2018 08:00:00 14,5 12,8 5 3 NNE 1016,2 0,0
18.10.2018 07:00:00 14,7 13,0 2 1 NNW 1016,4 -
18.10.2018 06:00:00 14,9 13,2 5 3 NNE 1016,4 -
18.10.2018 05:00:00 14,7 13,0 4 2 N 1016,5 -
18.10.2018 04:00:00 14,9 13,2 4 2 NNW 1017,0 -
18.10.2018 03:00:00 14,5 12,8 4 2 N 1017,3 -
18.10.2018 02:00:00 15,2 13,5 4 2 NNE 1017,6 0,0
18.10.2018 01:00:00 15,6 13,9 4 2 N 1018,0 -

tt = Température de l'air
td = dewpoint
ff = Vitesse du vent
dd = Direction du vent
ppp = reduced air pressure
rr = Quantités de précipitations

stations d'obs. à proximité